Time;durP1;ratioP1;P1;durP2;ratioP2;P2;SDS_P1;SDS_P2;PMS_P1;PMS_P2;Temp;Humidity;BMP_temperature;BMP_pressure;BME280_temperature;BME280_humidity;BME280_pressure;Samples;Min_cycle;Max_cycle;Signal;HPM_P1;HPM_P2
2021/11/01 00:02:23;;;;;;;35.63;25.17;;;;;;;7.36;68.76;101706.66;6121015;23;20157;-62
2021/11/01 00:04:49;;;;;;;36.67;26.53;;;;;;;7.30;68.34;101688.91;6120619;23;20159;-62
2021/11/01 00:07:14;;;;;;;39.37;26.27;;;;;;;6.78;68.64;101612.97;6120066;23;20269;-62
2021/11/01 00:09:41;;;;;;;38.57;27.43;;;;;;;7.28;68.50;101699.53;6121134;23;20204;-61
2021/11/01 00:12:07;;;;;;;36.93;28.10;;;;;;;7.28;69.69;101694.03;6121017;23;20608;-62
2021/11/01 00:14:33;;;;;;;42.10;29.43;;;;;;;7.23;69.63;101686.88;6121673;23;20221;-62
2021/11/01 00:16:59;;;;;;;38.80;27.53;;;;;;;6.70;71.05;101613.28;6121647;23;20156;-62
2021/11/01 00:19:26;;;;;;;43.63;31.57;;;;;;;7.19;71.18;101679.78;6122934;23;20177;-62
2021/11/01 00:21:52;;;;;;;40.40;27.17;;;;;;;7.20;69.58;101681.34;6122897;23;20159;-62
2021/11/01 00:24:18;;;;;;;39.43;26.93;;;;;;;7.21;69.91;101680.97;6122887;23;20161;-62
2021/11/01 00:26:44;;;;;;;51.97;32.27;;;;;;;7.14;72.65;101672.69;6121130;23;20267;-62
2021/11/01 00:29:13;;;;;;;42.97;30.87;;;;;;;6.60;72.66;101572.69;6123263;23;20256;-62
2021/11/01 00:31:39;;;;;;;49.50;32.17;;;;;;;7.19;72.55;101666.81;6123002;23;20612;-62
2021/11/01 00:34:04;;;;;;;48.33;30.60;;;;;;;7.13;72.96;101651.00;6123290;23;20162;-62
2021/11/01 00:36:30;;;;;;;41.53;28.70;;;;;;;7.23;72.84;101664.06;6120942;23;20159;-62
2021/11/01 00:38:56;;;;;;;38.57;26.60;;;;;;;7.24;71.89;101668.41;6122713;23;20172;-62
2021/11/01 00:41:21;;;;;;;39.67;27.13;;;;;;;7.24;71.23;101660.94;6122800;23;20161;-62
2021/11/01 00:43:47;;;;;;;44.63;29.43;;;;;;;7.27;70.99;101654.63;6122943;23;20236;-62
2021/11/01 00:46:12;;;;;;;41.87;28.80;;;;;;;6.74;70.94;101573.59;6120784;23;20233;-62
2021/11/01 00:48:38;;;;;;;42.60;26.57;;;;;;;7.31;72.50;101657.41;6122919;23;20213;-62
2021/11/01 00:51:04;;;;;;;34.23;24.13;;;;;;;7.33;72.28;101653.06;6123038;23;20165;-62
2021/11/01 00:53:32;;;;;;;38.87;24.83;;;;;;;7.36;71.17;101649.56;6122444;23;20154;-62
2021/11/01 00:55:59;;;;;;;37.17;25.33;;;;;;;7.39;70.43;101646.00;6121578;23;20158;-62
2021/11/01 00:58:25;;;;;;;38.07;25.73;;;;;;;7.42;70.28;101645.25;6122190;23;20168;-62
2021/11/01 01:00:52;;;;;;;39.37;24.77;;;;;;;7.45;70.68;101638.97;6122505;23;20185;-62
2021/11/01 01:03:17;;;;;;;37.73;26.00;;;;;;;7.32;71.77;101637.72;6122884;23;20217;-62
2021/11/01 01:05:44;;;;;;;37.67;25.47;;;;;;;7.34;72.41;101626.31;6120975;23;20165;-62
2021/11/01 01:08:14;;;;;;;36.50;24.33;;;;;;;7.38;71.65;101632.63;6122212;23;20216;-62
2021/11/01 01:10:41;;;;;;;34.73;24.43;;;;;;;7.42;70.35;101628.72;6122811;23;20661;-62
2021/11/01 01:13:08;;;;;;;32.70;24.30;;;;;;;7.14;70.34;101580.91;6122170;23;20150;-62
2021/11/01 01:15:44;;;;;;;35.57;24.50;;;;;;;7.35;71.47;101625.94;6121783;23;20270;-62
2021/11/01 01:18:16;;;;;;;35.10;23.47;;;;;;;7.43;71.00;101619.25;6122132;23;20570;-62
2021/11/01 01:20:43;;;;;;;38.43;23.47;;;;;;;7.48;69.99;101616.13;6122301;23;20146;-61
2021/11/01 01:23:08;;;;;;;31.93;22.93;;;;;;;7.52;69.52;101622.47;6122884;23;20150;-62
2021/11/01 01:25:41;;;;;;;39.53;24.97;;;;;;;7.38;70.87;101625.13;6121522;23;20285;-62
2021/11/01 01:28:07;;;;;;;33.70;25.07;;;;;;;6.97;71.66;101567.84;6118871;23;20178;-62
2021/11/01 01:30:33;;;;;;;36.67;26.67;;;;;;;7.29;71.74;101613.66;6122541;23;20164;-62
2021/11/01 01:32:58;;;;;;;40.37;26.63;;;;;;;7.29;72.23;101607.38;6122197;23;20546;-62
2021/11/01 01:35:24;;;;;;;34.47;24.60;;;;;;;7.38;72.31;101614.09;6122144;23;20188;-62
2021/11/01 01:37:53;;;;;;;39.47;26.03;;;;;;;7.00;72.37;101559.56;6121151;23;20229;-62
2021/11/01 01:40:19;;;;;;;32.93;23.87;;;;;;;7.48;71.55;101610.59;6122064;23;20162;-62
2021/11/01 01:42:44;;;;;;;33.23;23.93;;;;;;;7.57;71.10;101602.78;6122122;23;20161;-62
2021/11/01 01:45:12;;;;;;;33.73;24.30;;;;;;;7.56;71.58;101601.19;6122543;23;20163;-62
2021/11/01 01:47:41;;;;;;;35.47;25.27;;;;;;;7.59;71.91;101608.69;6120809;23;20281;-62
2021/11/01 01:50:09;;;;;;;37.03;25.13;;;;;;;7.58;71.93;101596.06;6122258;23;20182;-62
2021/11/01 01:52:34;;;;;;;37.33;24.97;;;;;;;7.58;71.78;101598.84;6122518;23;20153;-62
2021/11/01 01:55:00;;;;;;;35.30;25.37;;;;;;;7.32;72.06;101549.47;6121422;23;20182;-62
2021/11/01 01:57:26;;;;;;;36.83;25.40;;;;;;;7.54;71.61;101567.69;6120895;23;20178;-62
2021/11/01 01:59:51;;;;;;;37.73;25.53;;;;;;;7.67;71.45;101587.44;6122263;23;20162;-62
2021/11/01 02:02:17;;;;;;;36.43;24.70;;;;;;;7.72;71.45;101589.81;6121924;23;20630;-62
2021/11/01 02:04:43;;;;;;;35.63;25.20;;;;;;;7.63;71.34;101576.38;6121793;23;20681;-62
2021/11/01 02:07:11;;;;;;;43.33;26.67;;;;;;;7.66;71.96;101581.13;6121548;23;20593;-62
2021/11/01 02:09:46;;;;;;;43.40;25.87;;;;;;;7.66;72.28;101581.13;6095935;23;20190;-62
2021/11/01 02:12:30;;;;;;;36.03;24.70;;;;;;;7.67;71.65;101570.88;6121696;23;20165;-62
2021/11/01 02:15:21;;;;;;;39.00;24.53;;;;;;;7.76;72.00;101582.34;6121602;23;20165;-62
2021/11/01 02:17:52;;;;;;;46.27;26.37;;;;;;;7.44;72.06;101543.59;6120446;23;20244;-62
2021/11/01 02:20:57;;;;;;;43.33;26.17;;;;;;;7.76;71.77;101579.56;6121932;23;20155;-62
2021/11/01 02:23:29;;;;;;;43.53;25.83;;;;;;;7.78;71.47;101575.25;6080765;23;20171;-62
2021/11/01 02:25:58;;;;;;;43.27;26.40;;;;;;;7.80;71.82;101575.63;6094478;23;20173;-62
2021/11/01 02:28:35;;;;;;;38.70;25.60;;;;;;;7.79;72.06;101573.28;6121651;23;20166;-62
2021/11/01 02:31:04;;;;;;;37.93;24.57;;;;;;;7.81;72.30;101573.69;6121823;23;20154;-62
2021/11/01 02:33:29;;;;;;;39.30;25.60;;;;;;;7.84;71.92;101576.44;6121787;23;20153;-62
2021/11/01 02:35:55;;;;;;;33.33;24.90;;;;;;;7.84;72.94;101567.38;6120320;23;20158;-62
2021/11/01 02:38:25;;;;;;;37.07;25.43;;;;;;;7.92;72.25;101574.47;6121603;23;20674;-62
2021/11/01 02:40:52;;;;;;;32.77;23.70;;;;;;;7.97;72.18;101574.09;6121659;23;20150;-62
2021/11/01 02:43:18;;;;;;;33.97;24.40;;;;;;;7.60;72.11;101508.22;6121570;23;20154;-62
2021/11/01 02:45:44;;;;;;;35.47;23.83;;;;;;;8.06;71.97;101575.31;6120115;23;20159;-62
2021/11/01 02:48:10;;;;;;;39.67;24.50;;;;;;;7.61;71.98;101484.16;6095093;23;20322;-62
2021/11/01 02:50:37;;;;;;;31.43;23.93;;;;;;;8.17;71.78;101567.84;6095860;23;20166;-62
2021/11/01 02:53:03;;;;;;;35.13;23.80;;;;;;;7.84;71.93;101515.72;6121460;23;20442;-63
2021/11/01 02:55:29;;;;;;;37.67;23.57;;;;;;;8.23;71.61;101573.78;6120869;23;20325;-62
2021/11/01 02:57:55;;;;;;;33.97;23.70;;;;;;;8.23;71.87;101566.28;6120646;23;20185;-62
2021/11/01 03:00:25;;;;;;;32.33;22.80;;;;;;;8.27;71.47;101561.56;6121070;23;20613;-62
2021/11/01 03:02:51;;;;;;;30.67;23.13;;;;;;;8.30;71.44;101557.22;6121523;23;20243;-62
2021/11/01 03:05:19;;;;;;;31.97;21.80;;;;;;;8.29;71.28;101556.41;6121064;23;20182;-62
2021/11/01 03:07:47;;;;;;;33.90;22.77;;;;;;;8.30;70.95;101555.22;6120583;23;20229;-62
2021/11/01 03:10:16;;;;;;;37.67;22.17;;;;;;;8.26;70.29;101559.97;6121287;23;20157;-63
2021/11/01 03:12:45;;;;;;;30.30;21.10;;;;;;;8.23;69.68;101554.44;6121411;23;20608;-62
2021/11/01 03:15:20;;;;;;;29.77;21.43;;;;;;;8.22;69.81;101552.88;6120905;23;20162;-62
2021/11/01 03:17:53;;;;;;;31.73;22.47;;;;;;;8.21;69.81;101559.59;6120215;23;20176;-62
2021/11/01 03:20:26;;;;;;;31.23;21.60;;;;;;;8.21;70.03;101563.13;6120984;23;20151;-62
2021/11/01 03:22:56;;;;;;;31.03;21.67;;;;;;;8.21;69.37;101568.63;6121336;23;20177;-62
2021/11/01 03:25:31;;;;;;;29.73;21.43;;;;;;;8.18;69.43;101563.09;6120938;23;20217;-62
2021/11/01 03:27:59;;;;;;;27.77;20.33;;;;;;;8.14;69.76;101562.28;6095502;23;20166;-62
2021/11/01 03:30:25;;;;;;;30.33;22.67;;;;;;;8.08;70.89;101555.56;6120775;23;20209;-63
2021/11/01 03:32:51;;;;;;;42.17;26.73;;;;;;;8.02;71.74;101557.97;6121402;23;20161;-62
2021/11/01 03:35:19;;;;;;;41.43;27.00;;;;;;;7.67;72.23;101504.66;6121154;23;20592;-62
2021/11/01 03:37:46;;;;;;;37.17;25.97;;;;;;;7.98;72.30;101559.13;6120060;23;20514;-62
2021/11/01 03:40:19;;;;;;;36.53;24.20;;;;;;;7.88;72.89;101557.13;6095063;23;20176;-62
2021/11/01 03:42:47;;;;;;;37.67;23.63;;;;;;;7.92;72.30;101553.22;6121416;23;20145;-62
2021/11/01 03:45:13;;;;;;;35.77;23.20;;;;;;;7.98;72.17;101545.31;6120857;23;20236;-62
2021/11/01 03:47:42;;;;;;;41.77;25.47;;;;;;;7.93;72.68;101540.97;6120007;23;20228;-62
2021/11/01 03:52:50;;;;;;;42.73;24.10;;;;;;;7.99;72.29;101533.88;6121431;23;20142;-62
2021/11/01 03:55:17;;;;;;;35.93;24.03;;;;;;;8.02;72.02;101533.13;6120693;23;20158;-62
2021/11/01 03:57:44;;;;;;;40.13;26.40;;;;;;;7.90;73.48;101536.22;6120154;23;20722;-62
2021/11/01 04:00:10;;;;;;;35.27;23.20;;;;;;;7.94;73.29;101534.28;6120732;23;20150;-62
2021/11/01 04:02:36;;;;;;;36.43;24.43;;;;;;;7.62;73.35;101477.47;6121363;23;20636;-62
2021/11/01 04:05:03;;;;;;;37.73;25.63;;;;;;;7.90;74.04;101519.69;6120585;23;20509;-62
2021/11/01 04:07:31;;;;;;;35.33;25.47;;;;;;;7.91;73.85;101517.72;6120379;23;20150;-62
2021/11/01 04:09:56;;;;;;;35.43;24.10;;;;;;;7.97;73.53;101511.41;6120670;23;20154;-62
2021/11/01 04:12:22;;;;;;;36.43;26.20;;;;;;;7.83;74.11;101502.31;6121009;23;20676;-63
2021/11/01 04:15:05;;;;;;;37.87;25.80;;;;;;;7.57;74.09;101470.38;6120820;23;20154;-62
2021/11/01 04:17:39;;;;;;;34.53;25.73;;;;;;;7.61;73.47;101470.38;6119716;23;20170;-62
2021/11/01 04:22:45;;;;;;;37.40;24.33;;;;;;;7.69;72.45;101471.97;6121552;23;20146;-62
2021/11/01 04:25:11;;;;;;;36.67;23.33;;;;;;;8.02;71.73;101516.56;6120642;23;20162;-62
2021/11/01 04:27:37;;;;;;;28.87;19.77;;;;;;;8.00;71.02;101512.59;6120249;23;20155;-62
2021/11/01 04:30:05;;;;;;;27.13;20.13;;;;;;;7.98;69.99;101507.47;6120825;23;20229;-62
2021/11/01 04:32:39;;;;;;;28.97;19.77;;;;;;;7.97;69.49;101507.84;6120987;23;20155;-62
2021/11/01 04:35:14;;;;;;;30.00;21.47;;;;;;;7.94;68.89;101509.44;6120425;23;20169;-62
2021/11/01 04:37:42;;;;;;;30.23;20.03;;;;;;;7.86;70.44;101501.53;6120069;23;20573;-63
2021/11/01 04:43:23;;;;;;;40.33;27.40;;;;;;;7.32;73.55;101432.88;6121345;23;20143;-62
2021/11/01 04:53:59;;;;;;;33.83;22.43;;;;;;;7.89;71.06;101498.00;6120742;23;20149;-62
2021/11/01 04:56:26;;;;;;;36.00;25.93;;;;;;;7.89;72.40;101496.03;6119364;23;20171;-62
2021/11/01 04:58:54;;;;;;;34.87;22.97;;;;;;;7.91;72.30;101495.63;6120506;23;20194;-62
2021/11/01 05:04:27;;;;;;;32.27;23.70;;;;;;;7.99;73.80;101506.28;6057670;23;20165;-62
2021/11/01 05:06:57;;;;;;;30.53;23.50;;;;;;;7.80;72.52;101454.22;6121304;23;20486;-62
2021/11/01 05:09:34;;;;;;;33.57;25.20;;;;;;;8.14;72.91;101484.97;6122635;23;20157;-62
2021/11/01 05:14:36;;;;;;;32.23;22.77;;;;;;;8.21;72.00;101493.31;6121888;23;20170;-62
2021/11/01 05:17:19;;;;;;;34.73;24.00;;;;;;;7.96;72.35;101443.59;6121327;23;20195;-62
2021/11/01 05:20:53;;;;;;;36.73;25.40;;;;;;;8.02;72.46;101442.03;6122134;23;20164;-62
2021/11/01 05:25:31;;;;;;;45.03;27.80;;;;;;;8.48;73.20;101494.47;6122489;23;20155;-62
2021/11/01 05:28:25;;;;;;;42.03;26.03;;;;;;;8.56;72.92;101493.28;6121683;23;20204;-62
2021/11/01 05:30:58;;;;;;;36.80;26.37;;;;;;;8.66;72.57;101498.00;6122109;23;20257;-62
2021/11/01 05:36:01;;;;;;;31.47;23.97;;;;;;;8.83;72.07;101497.94;6121323;23;20149;-62
2021/11/01 05:38:26;;;;;;;38.77;26.13;;;;;;;8.91;71.56;101495.94;6122203;23;20188;-62
2021/11/01 05:40:52;;;;;;;46.73;31.57;;;;;;;9.00;71.65;101499.06;6121894;23;20235;-62
2021/11/01 05:43:18;;;;;;;54.60;41.10;;;;;;;8.71;71.40;101465.19;6122401;23;20156;-62
2021/11/01 05:45:43;;;;;;;62.13;45.97;;;;;;;9.12;71.49;101507.69;6094963;23;20166;-62
2021/11/01 05:48:09;;;;;;;61.87;46.83;;;;;;;9.19;71.29;101506.88;6121733;23;20196;-62
2021/11/01 05:50:37;;;;;;;50.97;40.00;;;;;;;9.23;70.95;101515.97;6096167;23;20167;-62
2021/11/01 05:53:06;;;;;;;51.10;39.37;;;;;;;9.25;70.92;101514.38;6121857;23;20165;-62
2021/11/01 06:03:40;;;;;;;40.37;28.37;;;;;;;8.91;70.74;101469.09;6067188;23;20170;-62
2021/11/01 06:14:15;;;;;;;44.10;29.07;;;;;;;9.62;69.45;101516.53;6122032;23;20181;-62
2021/11/01 06:16:40;;;;;;;38.67;28.43;;;;;;;9.75;69.31;101518.47;6120853;23;20182;-61
2021/11/01 06:19:06;;;;;;;42.90;30.47;;;;;;;9.81;69.42;101516.03;6121475;23;20266;-62
2021/11/01 06:21:31;;;;;;;44.07;29.80;;;;;;;9.92;69.03;101520.31;6096063;23;20162;-62
2021/11/01 06:24:00;;;;;;;42.30;30.90;;;;;;;9.99;69.10;101522.25;6122117;23;20154;-61
2021/11/01 06:26:28;;;;;;;44.80;33.23;;;;;;;10.08;69.31;101515.09;6120177;23;20160;-62
2021/11/01 06:28:59;;;;;;;51.50;32.30;;;;;;;10.16;69.30;101519.38;6121914;23;20154;-62
2021/11/01 06:31:30;;;;;;;39.27;30.20;;;;;;;10.16;69.32;101507.50;6121953;23;20597;-61
2021/11/01 07:14:19;;;;;;;37.83;29.13;;;;;;;11.49;67.79;101512.41;6121332;23;20524;-62
2021/11/01 07:30:28;;;;;;;38.80;30.43;;;;;;;11.92;67.49;101502.28;6121386;23;20232;-62
2021/11/01 09:29:16;;;;;;;33.53;26.33;;;;;;;13.76;62.61;101450.97;6122865;23;20155;-65
2021/11/01 09:36:47;;;;;;;33.03;25.00;;;;;;;14.30;61.56;101447.25;6120455;23;20204;-65
2021/11/01 09:41:56;;;;;;;37.73;26.67;;;;;;;14.17;60.85;101437.22;6122728;23;20178;-65
2021/11/01 09:44:25;;;;;;;32.50;26.40;;;;;;;13.95;61.55;101419.47;6122151;23;20159;-65
2021/11/01 09:46:58;;;;;;;34.47;28.00;;;;;;;14.13;61.56;101426.16;6119471;23;20250;-66
2021/11/01 09:49:27;;;;;;;15.63;12.67;;;;;;;13.94;61.52;101426.25;6122357;23;20200;-66
2021/11/01 09:51:56;;;;;;;35.23;26.23;;;;;;;14.10;61.21;101427.03;6122156;23;20152;-66
2021/11/01 09:54:26;;;;;;;32.60;26.13;;;;;;;14.23;60.59;101422.34;6122177;23;20163;-66
2021/11/01 09:57:03;;;;;;;31.33;25.07;;;;;;;14.26;60.77;101415.91;6120278;23;20152;-66
2021/11/01 09:59:39;;;;;;;36.40;25.03;;;;;;;14.41;60.56;101424.66;6121841;23;20492;-66
2021/11/01 10:02:10;;;;;;;34.93;27.70;;;;;;;14.40;60.34;101414.75;6122092;23;20156;-65
2021/11/01 10:04:40;;;;;;;34.27;27.23;;;;;;;13.90;60.66;101389.34;6121804;23;20149;-61
2021/11/01 10:07:19;;;;;;;34.20;27.33;;;;;;;14.05;61.15;101415.63;6120598;23;20185;-67
2021/11/01 10:09:46;;;;;;;35.87;28.00;;;;;;;13.98;61.40;101377.56;6121741;23;20583;-68
2021/11/01 10:12:20;;;;;;;35.80;27.67;;;;;;;14.00;61.70;101410.59;6121726;23;20168;-67
2021/11/01 10:18:00;;;;;;;34.97;27.10;;;;;;;14.27;60.99;101389.59;6121125;23;20236;-68
2021/11/01 10:20:27;;;;;;;34.63;26.80;;;;;;;14.60;59.80;101405.00;6121970;23;20160;-67
2021/11/01 10:22:53;;;;;;;36.10;26.33;;;;;;;14.66;59.82;101400.44;6121986;23;20155;-68
2021/11/01 10:25:21;;;;;;;32.47;25.87;;;;;;;14.79;59.54;101395.69;6094970;23;20214;-67
2021/11/01 10:27:56;;;;;;;33.60;26.53;;;;;;;14.82;59.19;101396.81;6120862;23;20188;-67
2021/11/01 10:30:30;;;;;;;30.67;25.57;;;;;;;14.49;60.05;101389.78;6095851;23;20179;-67
2021/11/01 10:32:59;;;;;;;33.43;26.60;;;;;;;14.29;60.15;101378.75;6121965;23;20242;-66
2021/11/01 10:35:32;;;;;;;32.33;25.43;;;;;;;14.48;60.05;101388.19;6094789;23;20222;-66
2021/11/01 10:57:27;;;;;;;30.77;24.27;;;;;;;14.81;58.77;101336.66;6120413;23;20273;-67
2021/11/01 11:13:19;;;;;;;31.30;23.47;;;;;;;15.34;58.05;101333.81;6121420;23;20240;-66
2021/11/01 11:15:50;;;;;;;26.63;22.63;;;;;;;15.28;57.57;101318.03;6119988;23;20154;-67
2021/11/01 11:21:17;;;;;;;27.50;22.33;;;;;;;15.65;56.98;101323.59;6121609;23;20197;-68
2021/11/01 11:29:24;;;;;;;27.17;21.00;;;;;;;15.95;56.32;101314.56;6121796;23;20518;-67
2021/11/01 11:40:37;;;;;;;24.30;20.03;;;;;;;16.16;55.46;101307.44;6121082;23;20181;-67
2021/11/01 11:50:32;;;;;;;27.67;20.53;;;;;;;16.18;55.12;101282.63;6121306;23;20138;-67
2021/11/01 11:53:11;;;;;;;25.03;20.27;;;;;;;16.05;56.00;101281.88;6121133;23;20160;-66
2021/11/01 11:55:37;;;;;;;23.37;18.67;;;;;;;16.08;55.22;101251.00;6119904;23;20151;-66
2021/11/01 11:58:04;;;;;;;28.17;19.53;;;;;;;16.36;55.15;101263.94;6120629;23;20162;-66
2021/11/01 12:00:33;;;;;;;24.07;18.20;;;;;;;16.56;55.10;101263.63;6120759;23;20154;-67
2021/11/01 12:03:37;;;;;;;23.97;17.27;;;;;;;16.71;54.27;101257.00;6121155;23;20158;-67
2021/11/01 12:06:12;;;;;;;20.30;17.53;;;;;;;16.62;54.26;101258.97;6075726;23;20341;-64
2021/11/01 12:08:45;;;;;;;22.47;18.13;;;;;;;15.68;53.92;101110.31;6120996;23;20150;-66
2021/11/01 12:11:19;;;;;;;21.63;17.80;;;;;;;16.71;54.06;101259.81;6122133;23;20137;-66
2021/11/01 12:19:15;;;;;;;18.73;15.93;;;;;;;16.85;53.23;101244.50;6122133;23;20226;-64
2021/11/01 12:21:45;;;;;;;17.80;15.47;;;;;;;16.93;53.46;101240.16;6097179;23;20155;-64
2021/11/01 12:24:14;;;;;;;18.20;14.87;;;;;;;17.12;52.97;101247.38;6122774;23;20194;-66
2021/11/01 12:26:44;;;;;;;18.30;15.53;;;;;;;17.26;52.44;101238.41;6121349;23;20265;-67
2021/11/01 12:29:12;;;;;;;18.73;16.17;;;;;;;17.28;52.47;101221.91;6096665;23;20509;-68
2021/11/01 12:31:37;;;;;;;19.13;16.00;;;;;;;17.40;51.96;101232.22;6123161;23;20154;-68
2021/11/01 12:34:09;;;;;;;18.80;15.43;;;;;;;17.20;52.22;101235.44;6122983;23;20635;-69
2021/11/01 12:39:28;;;;;;;18.13;15.70;;;;;;;17.33;52.61;101218.50;6123328;23;20145;-69
2021/11/01 12:42:47;;;;;;;22.27;16.43;;;;;;;17.40;52.19;101211.84;6123252;23;20137;-69
2021/11/01 12:58:27;;;;;;;19.70;16.00;;;;;;;17.56;51.51;101208.75;6122248;23;20202;-69
2021/11/01 13:00:53;;;;;;;21.40;16.97;;;;;;;17.65;51.93;101208.75;6122483;23;20156;-69
2021/11/01 13:03:22;;;;;;;20.27;16.57;;;;;;;17.73;51.33;101215.59;6122962;23;20234;-65
2021/11/01 13:06:02;;;;;;;18.87;16.60;;;;;;;17.00;51.12;101085.88;6121010;23;20161;-65
2021/11/01 13:08:31;;;;;;;19.67;17.50;;;;;;;17.00;51.52;101074.69;6096392;23;20161;-64
2021/11/01 13:11:00;;;;;;;21.70;17.67;;;;;;;17.32;50.95;101125.25;6096514;23;20244;-65
2021/11/01 13:13:46;;;;;;;20.93;17.37;;;;;;;17.80;51.31;101198.47;6122780;23;20159;-64
2021/11/01 13:19:17;;;;;;;24.47;17.93;;;;;;;17.97;50.92;101205.31;6122054;23;20204;-69
2021/11/01 13:21:59;;;;;;;22.23;17.40;;;;;;;17.99;50.75;101206.41;6122126;23;20139;-69
2021/11/01 13:36:06;;;;;;;21.87;18.90;;;;;;;17.98;50.38;101179.63;6120785;23;20156;-66
2021/11/01 13:38:33;;;;;;;22.80;20.30;;;;;;;17.99;50.36;101195.94;6122422;23;20133;-66
2021/11/01 13:40:58;;;;;;;25.47;21.10;;;;;;;17.98;50.49;101185.97;6122226;23;20629;-66
2021/11/01 13:43:27;;;;;;;24.60;20.27;;;;;;;17.98;50.54;101188.03;6122407;23;20154;-66
2021/11/01 13:45:54;;;;;;;26.33;20.83;;;;;;;17.91;50.70;101188.31;6120607;23;20620;-66
2021/11/01 13:48:33;;;;;;;29.70;21.83;;;;;;;17.93;50.41;101185.84;6095641;23;20201;-65
2021/11/01 13:51:07;;;;;;;27.03;22.53;;;;;;;17.91;50.73;101179.16;6096525;23;20172;-65
2021/11/01 13:53:38;;;;;;;28.33;22.43;;;;;;;17.79;51.04;101166.84;6122565;23;20186;-65
2021/11/01 13:56:27;;;;;;;27.40;21.83;;;;;;;17.88;50.98;101171.66;6120421;23;20554;-65
2021/11/01 13:59:08;;;;;;;31.30;22.73;;;;;;;17.81;51.18;101180.41;6121862;23;20149;-66
2021/11/01 14:13:34;;;;;;;27.63;23.73;;;;;;;17.63;51.51;101158.78;6122088;23;20153;-67
2021/11/01 14:34:00;;;;;;;30.67;24.03;;;;;;;16.37;54.49;101117.25;6121685;23;20141;-66
2021/11/01 15:05:10;;;;;;;31.60;25.93;;;;;;;14.58;59.93;101136.88;6121829;23;20185;-69
2021/11/01 15:31:05;;;;;;;33.40;26.37;;;;;;;13.10;63.72;101128.47;6121246;23;20224;-65
2021/11/01 15:36:31;;;;;;;36.20;27.43;;;;;;;12.88;64.25;101123.84;6119452;23;20205;-65
2021/11/01 16:19:51;;;;;;;41.97;29.00;;;;;;;11.37;69.76;101120.88;6121305;23;20192;-68
2021/11/01 16:22:18;;;;;;;36.17;27.93;;;;;;;11.34;70.11;101130.03;6120805;23;20165;-69
2021/11/01 16:24:46;;;;;;;37.97;29.53;;;;;;;11.28;70.68;101115.09;6120161;23;20194;-68
2021/11/01 16:27:15;;;;;;;39.93;30.43;;;;;;;11.07;71.45;101090.53;6119945;23;20667;-68
2021/11/01 16:30:09;;;;;;;18.57;14.37;;;;;;;11.06;71.82;101111.16;6121273;23;20559;-67
2021/11/01 16:32:37;;;;;;;38.67;28.97;;;;;;;11.04;71.87;101110.78;6119749;23;20166;-68
2021/11/01 16:35:05;;;;;;;41.70;29.83;;;;;;;11.00;72.07;101116.41;6120087;23;20399;-67
2021/11/01 16:38:36;;;;;;;42.30;32.53;;;;;;;10.81;72.02;101106.03;6119929;23;20148;-64
2021/11/01 16:40:27;;;;;;;44.50;32.63;;;;;;;10.85;72.13;101115.09;6107297;23;20158;-65
2021/11/01 16:42:53;;;;;;;40.57;31.00;;;;;;;10.78;72.08;101126.31;6120746;23;20154;-64
2021/11/01 16:45:30;;;;;;;36.20;25.13;;;;;;;10.74;72.89;101133.88;6119986;23;20502;-67
2021/11/01 16:47:59;;;;;;;49.37;38.23;;;;;;;10.71;72.38;101136.72;6119978;23;20273;-65
2021/11/01 16:50:24;;;;;;;52.87;39.77;;;;;;;10.68;72.36;101137.56;6120876;23;20161;-65
2021/11/01 16:52:50;;;;;;;50.90;38.83;;;;;;;10.60;73.05;101136.88;6120618;23;20221;-65
2021/11/01 16:55:19;;;;;;;56.47;37.40;;;;;;;10.56;72.84;101144.47;6120044;23;20605;-65
2021/11/01 16:57:50;;;;;;;56.00;40.07;;;;;;;10.52;72.46;101140.19;6121434;23;20146;-65
2021/11/01 17:00:27;;;;;;;54.83;41.63;;;;;;;10.52;72.40;101140.97;6121991;23;20228;-65
2021/11/01 17:25:21;;;;;;;45.67;32.40;;;;;;;9.94;69.63;101171.81;6076141;23;20171;-64
2021/11/01 17:36:22;;;;;;;47.10;30.07;;;;;;;9.45;68.85;101172.41;6120503;23;20232;-64
2021/11/01 18:53:42;;;;;;;81.10;54.00;;;;;;;8.17;76.86;101183.25;6098620;23;20162;-65
2021/11/01 18:56:11;;;;;;;79.47;52.10;;;;;;;7.92;76.25;101143.97;6119641;23;20601;-65
2021/11/01 18:58:39;;;;;;;74.53;50.93;;;;;;;8.06;76.88;101168.75;6121555;23;20186;-64
2021/11/01 19:01:09;;;;;;;67.57;47.17;;;;;;;8.05;76.79;101173.47;6095311;23;20205;-64
2021/11/01 19:03:42;;;;;;;68.13;46.43;;;;;;;8.07;76.51;101179.38;6121911;23;20178;-65
2021/11/01 20:06:53;;;;;;;64.33;44.43;;;;;;;6.85;68.56;101147.41;6119419;23;20152;-64
2021/11/01 20:09:55;;;;;;;57.90;42.03;;;;;;;6.84;68.30;101145.84;6121572;23;20488;-64
2021/11/01 20:12:33;;;;;;;57.70;41.00;;;;;;;6.80;68.30;101161.56;6120549;23;20161;-64
2021/11/01 21:25:11;;;;;;;47.17;33.63;;;;;;;6.40;69.17;101081.31;6121527;23;20433;-64
2021/11/01 21:27:37;;;;;;;51.40;33.67;;;;;;;6.38;68.66;101083.66;6121606;23;20173;-64
2021/11/01 21:30:04;;;;;;;48.80;34.30;;;;;;;5.94;68.71;101022.72;6122330;23;20161;-64
2021/11/01 21:32:29;;;;;;;49.10;32.20;;;;;;;5.65;68.49;100982.56;6122368;23;20161;-64
2021/11/01 21:35:00;;;;;;;39.70;27.93;;;;;;;6.34;68.92;101083.69;6121608;23;20195;-64
2021/11/01 21:37:27;;;;;;;36.67;26.47;;;;;;;6.34;68.31;101082.88;6121100;23;20142;-64
2021/11/01 21:39:53;;;;;;;39.23;29.17;;;;;;;6.24;69.23;101080.91;6121974;23;20185;-64
2021/11/01 21:42:20;;;;;;;42.27;28.47;;;;;;;5.62;67.96;100978.63;6121636;23;20567;-64
2021/11/01 21:44:46;;;;;;;36.63;26.90;;;;;;;6.33;68.32;101073.84;6121108;23;20155;-64
2021/11/01 21:47:12;;;;;;;37.93;29.90;;;;;;;6.02;68.83;101032.53;6120805;23;20260;-64
2021/11/01 21:49:37;;;;;;;57.90;42.30;;;;;;;6.37;70.12;101063.63;6123177;23;20146;-64
2021/11/01 21:52:04;;;;;;;44.97;32.60;;;;;;;6.38;70.51;101081.72;6122682;23;20634;-64
2021/11/01 21:54:32;;;;;;;50.47;31.97;;;;;;;6.13;69.28;101027.81;6121960;23;20163;-64
2021/11/01 21:57:09;;;;;;;54.10;35.70;;;;;;;5.60;70.12;100966.44;6120885;23;20157;-64
2021/11/01 22:21:28;;;;;;;64.67;43.10;;;;;;;6.76;73.96;101034.06;6122244;23;20148;-64
2021/11/01 22:34:37;;;;;;;58.23;37.13;;;;;;;7.20;73.49;100994.97;6121836;23;20493;-64
2021/11/01 22:39:51;;;;;;;56.50;37.30;;;;;;;7.31;73.88;101002.00;6121750;23;20173;-64
2021/11/01 22:58:02;;;;;;;50.20;35.53;;;;;;;7.13;71.89;100844.19;6121142;23;20196;-64
2021/11/01 23:00:41;;;;;;;52.40;34.50;;;;;;;8.05;71.34;100979.47;6121216;23;20157;-64
2021/11/01 23:03:15;;;;;;;48.10;33.77;;;;;;;8.09;71.68;100983.78;6121401;23;20139;-64
2021/11/01 23:33:00;;;;;;;43.00;31.00;;;;;;;8.41;71.87;100964.97;6121471;23;20146;-64
2021/11/01 23:35:26;;;;;;;45.27;32.63;;;;;;;7.99;71.80;100881.75;6120196;23;20158;-64
2021/11/01 23:37:51;;;;;;;42.20;31.77;;;;;;;8.49;71.64;100949.91;6120431;23;20260;-64
2021/11/01 23:40:17;;;;;;;45.73;33.33;;;;;;;8.55;71.82;100947.47;6120454;23;20159;-64
2021/11/01 23:42:43;;;;;;;43.43;31.07;;;;;;;8.51;72.11;100946.75;6121443;23;20607;-64
2021/11/01 23:45:09;;;;;;;39.63;30.33;;;;;;;8.55;72.10;100941.94;6120006;23;20158;-64
2021/11/01 23:47:34;;;;;;;38.40;28.63;;;;;;;8.62;72.16;100930.84;6120115;23;20198;-65
2021/11/01 23:50:00;;;;;;;38.77;29.50;;;;;;;8.65;72.25;100927.22;6120729;23;20617;-64
2021/11/01 23:52:25;;;;;;;36.87;27.00;;;;;;;8.39;72.60;100916.88;6121031;23;20154;-64
2021/11/01 23:54:51;;;;;;;37.83;28.90;;;;;;;8.39;72.56;100916.88;6120324;23;20602;-64
2021/11/01 23:57:20;;;;;;;40.00;30.03;;;;;;;8.40;73.44;100918.47;6120349;23;20518;-64
2021/11/01 23:59:48;;;;;;;42.63;30.23;;;;;;;8.47;73.51;100916.41;6120974;23;20504;-64
